Hellenic Highspeed — SVAI2 — position and weather

sailwx.info

Track history (hours):
 
Tides and Currents Weather Stations Pressure Air Temp Water Temp Dewpoint Dewpoint Depression Visibility Wind Speed Wind Dir Waves Ship Positions

Hellenic Highspeed

Last reported at 2017-Sep-20 20:59 UTC. Time now 2017-Sep-20 22:12 UTC.
Position N 37°57' E 023°38'.

Length 87 m; draft 4 m.

Type: High speed craft. MMSI: 241420000.

Date/timePositionNaut miles runAvg speedWind from/ knotsBaromVisibWave heightAir tempDewpointWater temp
2017-Sep-20 20:59N 37°57' E 023°38'0 0.0
2017-Sep-20 20:29N 37°57' E 023°38'0 0.0
2017-Sep-20 19:59N 37°57' E 023°38'0 0.0
2017-Sep-20 19:29N 37°57' E 023°38'0 0.0
2017-Sep-20 18:59N 37°57' E 023°38'0 0.0
2017-Sep-20 18:29N 37°57' E 023°38'0 0.0
2017-Sep-20 17:59N 37°57' E 023°38'0 0.0
2017-Sep-20 17:29N 37°57' E 023°38'0 0.0
2017-Sep-20 16:59N 37°57' E 023°38'0 0.0
2017-Sep-20 16:29N 37°57' E 023°38'3 6.0
2017-Sep-20 16:00N 37°54' E 023°38'1428.1
2017-Sep-20 15:31N 37°42' E 023°46'9012.7
2017-Sep-20 08:26N 36°43' E 025°12'1631.0
2017-Sep-20 07:55N 36°49' E 024°54'7225.8
2017-Sep-20 05:07N 37°38' E 023°46'431.1
2017-Sep-20 05:00N 37°40' E 023°43'1530.3
2017-Sep-20 04:31N 37°54' E 023°36'3 5.6
2017-Sep-20 03:58N 37°57' E 023°38'0 0.0
2017-Sep-20 03:28N 37°57' E 023°38'0 0.0
2017-Sep-20 02:58N 37°57' E 023°38'0 0.0
2017-Sep-20 02:28N 37°57' E 023°38'0 0.0
2017-Sep-20 01:58N 37°57' E 023°38'0 0.0
2017-Sep-20 01:28N 37°57' E 023°38'0 0.0
2017-Sep-20 00:58N 37°57' E 023°38'0 0.0
2017-Sep-20 00:28N 37°57' E 023°38'0 0.0
2017-Sep-20 00:00N 37°57' E 023°38'0 0.0
2017-Sep-19 23:28N 37°57' E 023°38'0 0.0
2017-Sep-19 22:58N 37°57' E 023°38'0 0.0
2017-Sep-19 21:19N 37°57' E 023°38'0 0.0
2017-Sep-19 20:58N 37°57' E 023°38'0 0.0
2017-Sep-19 20:28N 37°57' E 023°38'0 0.0
2017-Sep-19 19:04N 37°57' E 023°38'0 0.0
2017-Sep-19 18:58N 37°57' E 023°38'0 0.0
2017-Sep-19 18:28N 37°57' E 023°38'0 0.0
2017-Sep-19 17:58N 37°57' E 023°38'0 0.0
2017-Sep-19 17:28N 37°57' E 023°38'0 0.0
2017-Sep-19 16:58N 37°57' E 023°38'0 0.0
2017-Sep-19 16:28N 37°57' E 023°38'0 0.1
2017-Sep-19 16:01N 37°57' E 023°38'918.4
2017-Sep-19 15:31N 37°48' E 023°41'1530.9
2017-Sep-19 15:01N 37°35' E 023°52'1630.4
2017-Sep-19 14:30N 37°23' E 024°05'25 3.1
2017-Sep-19 06:33N 37°06' E 024°26'131.4
2017-Sep-19 06:30N 37°06' E 024°25'1631.8
2017-Sep-19 06:00N 37°18' E 024°11'1632.2
2017-Sep-19 05:30N 37°29' E 023°57'1631.3
2017-Sep-19 05:01N 37°40' E 023°43'1529.7
2017-Sep-19 04:31N 37°54' E 023°37'3 5.0
2017-Sep-19 03:58N 37°57' E 023°38'0 0.0
2017-Sep-19 03:28N 37°57' E 023°38'0 0.0
2017-Sep-19 02:58N 37°57' E 023°38'0 0.0
2017-Sep-19 02:28N 37°57' E 023°38'0 0.0
2017-Sep-19 01:58N 37°57' E 023°38'0 0.0
2017-Sep-19 01:28N 37°57' E 023°38'0 0.0
2017-Sep-19 00:58N 37°57' E 023°38'0 0.0
2017-Sep-19 00:28N 37°57' E 023°38'0 0.0
2017-Sep-18 23:58N 37°57' E 023°38'0 0.0
2017-Sep-18 23:28N 37°57' E 023°38'0 0.0
2017-Sep-18 22:58N 37°57' E 023°38'0 0.0
2017-Sep-18 22:28N 37°57' E 023°38'0 0.0
2017-Sep-18 21:58N 37°57' E 023°38'0 0.0
2017-Sep-18 21:28N 37°57' E 023°38'0 0.0
2017-Sep-18 20:58N 37°57' E 023°38'0 0.0
2017-Sep-18 20:28N 37°57' E 023°38'0 0.0
2017-Sep-18 19:58N 37°57' E 023°38'0 0.0
2017-Sep-18 19:28N 37°57' E 023°38'0 0.0
2017-Sep-18 18:58N 37°57' E 023°38'0 0.0
2017-Sep-18 18:28N 37°57' E 023°38'0 0.0
2017-Sep-18 17:58N 37°57' E 023°38'0 0.0
2017-Sep-18 17:28N 37°57' E 023°38'0 0.0
2017-Sep-18 16:58N 37°57' E 023°38'0 0.0
2017-Sep-18 16:28N 37°57' E 023°38'0 0.0
2017-Sep-18 16:00N 37°57' E 023°38'918.2
2017-Sep-18 15:31N 37°48' E 023°41'1530.3
2017-Sep-18 15:00N 37°36' E 023°53'29 3.3
2017-Sep-18 06:12N 37°14' E 024°17'632.2
2017-Sep-18 06:00N 37°18' E 024°11'1631.8
2017-Sep-18 05:31N 37°29' E 023°57'1631.1
2017-Sep-18 05:00N 37°40' E 023°43'1530.6
2017-Sep-18 04:31N 37°54' E 023°36'3 5.5
2017-Sep-18 03:58N 37°57' E 023°38'0 0.0
2017-Sep-18 03:25N 37°57' E 023°38'0 0.0
2017-Sep-18 02:58N 37°57' E 023°38'0 0.0
2017-Sep-18 02:31N 37°57' E 023°38'0 0.0
2017-Sep-18 01:58N 37°57' E 023°38'0 0.0
2017-Sep-18 01:28N 37°57' E 023°38'0 0.0
2017-Sep-18 00:58N 37°57' E 023°38'0 0.0
2017-Sep-18 00:28N 37°57' E 023°38'0 0.0
2017-Sep-17 23:58N 37°57' E 023°38'0 0.0
2017-Sep-17 23:28N 37°57' E 023°38'0 0.0
2017-Sep-17 22:58N 37°57' E 023°38'0 0.0
2017-Sep-17 22:28N 37°57' E 023°38'0 0.0
2017-Sep-17 21:58N 37°57' E 023°38'0 0.0
2017-Sep-17 21:28N 37°57' E 023°38'0 0.0
2017-Sep-17 20:58N 37°57' E 023°38'0 0.0
2017-Sep-17 20:22N 37°57' E 023°38'0 0.0
2017-Sep-17 19:58N 37°57' E 023°38'0 0.0
2017-Sep-17 19:28N 37°57' E 023°38'0 0.0
2017-Sep-17 18:58N 37°57' E 023°38'0 0.0
2017-Sep-17 18:28N 37°57' E 023°38'0 0.0
2017-Sep-17 17:58N 37°57' E 023°38'0 0.0
2017-Sep-17 17:28N 37°57' E 023°38'0 0.0
2017-Sep-17 16:58N 37°57' E 023°38'0 0.0
2017-Sep-17 16:31N 37°57' E 023°38'1 1.6
2017-Sep-17 16:00N 37°56' E 023°38'1223.3
2017-Sep-17 15:30N 37°45' E 023°43'21 2.2
2017-Sep-17 05:37N 37°28' E 023°59'431.4
2017-Sep-17 05:30N 37°31' E 023°56'1631.2
2017-Sep-17 05:01N 37°42' E 023°42'1428.5
2017-Sep-17 04:31N 37°55' E 023°37'2 3.4
2017-Sep-17 03:58N 37°57' E 023°38'0 0.0
2017-Sep-17 03:28N 37°57' E 023°38'0 0.0
2017-Sep-17 02:55N 37°57' E 023°38'0 0.0
2017-Sep-17 02:28N 37°57' E 023°38'0 0.0
2017-Sep-17 01:58N 37°57' E 023°38'0 0.0
2017-Sep-17 01:28N 37°57' E 023°38'0 0.0
2017-Sep-17 00:58N 37°57' E 023°38'0 0.0
2017-Sep-17 00:28N 37°57' E 023°38'0 0.0
2017-Sep-16 23:58N 37°57' E 023°38'0 0.0
2017-Sep-16 23:28N 37°57' E 023°38'0 0.0
2017-Sep-16 22:58N 37°57' E 023°38'0 0.0
2017-Sep-16 22:28N 37°57' E 023°38'0 0.0
2017-Sep-16 21:58N 37°57' E 023°38'0 0.0
2017-Sep-16 21:25N 37°57' E 023°38'0 0.0
2017-Sep-16 20:58N 37°57' E 023°38'0 0.0
2017-Sep-16 20:28N 37°57' E 023°38'0 0.0
2017-Sep-16 19:58N 37°57' E 023°38'0 0.0
2017-Sep-16 19:25N 37°57' E 023°38'0 0.0
2017-Sep-16 18:58N 37°57' E 023°38'0 0.0
2017-Sep-16 18:28N 37°57' E 023°38'0 0.0
2017-Sep-16 17:58N 37°57' E 023°38'0 0.0
2017-Sep-16 17:28N 37°57' E 023°38'0 0.0
2017-Sep-16 16:58N 37°57' E 023°38'0 0.0
2017-Sep-16 16:28N 37°57' E 023°38'0 0.5
2017-Sep-16 16:00N 37°57' E 023°38'1020.5
2017-Sep-16 15:31N 37°47' E 023°42'13 1.3
2017-Sep-16 05:16N 37°35' E 023°50'830.8
2017-Sep-16 05:01N 37°41' E 023°42'1529.5
2017-Sep-16 04:31N 37°55' E 023°36'2 4.1
2017-Sep-16 03:54N 37°57' E 023°38'0 0.0
2017-Sep-16 03:30N 37°57' E 023°38'0 0.0
2017-Sep-16 03:00N 37°57' E 023°38'0 0.0
2017-Sep-16 02:30N 37°57' E 023°38'0 0.0
2017-Sep-16 02:00N 37°57' E 023°38'0 0.0
2017-Sep-16 01:30N 37°57' E 023°38'0 0.0
2017-Sep-16 01:00N 37°57' E 023°38'0 0.0
2017-Sep-16 00:30N 37°57' E 023°38'0 0.0
2017-Sep-16 00:00N 37°57' E 023°38'0 0.0
2017-Sep-15 23:30N 37°57' E 023°38'0 0.0
2017-Sep-15 23:00N 37°57' E 023°38'0 0.0
2017-Sep-15 22:30N 37°57' E 023°38'0 0.0
2017-Sep-15 22:00N 37°57' E 023°38'0 0.0
2017-Sep-15 21:30N 37°57' E 023°38'0 0.0
2017-Sep-15 21:00N 37°57' E 023°38'0 0.0
2017-Sep-15 20:30N 37°57' E 023°38'0 0.0
2017-Sep-15 20:00N 37°57' E 023°38'0 0.0
2017-Sep-15 19:30N 37°57' E 023°38'0 0.0
2017-Sep-15 19:00N 37°57' E 023°38'0 0.0
2017-Sep-15 18:30N 37°57' E 023°38'0 0.0
2017-Sep-15 18:00N 37°57' E 023°38'0 0.0
2017-Sep-15 17:30N 37°57' E 023°38'0 0.0
2017-Sep-15 17:00N 37°57' E 023°38'0 0.0
2017-Sep-15 16:30N 37°57' E 023°38'0 0.0
2017-Sep-15 16:01N 37°57' E 023°38'918.8
2017-Sep-15 15:31N 37°48' E 023°41'1530.4
2017-Sep-15 15:01N 37°35' E 023°53'1530.4
2017-Sep-15 14:31N 37°24' E 024°05'1529.9
2017-Sep-15 14:01N 37°13' E 024°18'33 3.8
2017-Sep-15 05:13N 37°36' E 023°48'630.6
2017-Sep-15 05:01N 37°41' E 023°42'1530.0
2017-Sep-15 04:30N 37°55' E 023°36'3 5.4
2017-Sep-15 04:00N 37°57' E 023°38'0 0.0
2017-Sep-15 03:30N 37°57' E 023°38'0 0.0
2017-Sep-15 03:00N 37°57' E 023°38'0 0.0
2017-Sep-15 02:27N 37°57' E 023°38'0 0.0
2017-Sep-15 02:00N 37°57' E 023°38'0 0.0
2017-Sep-15 01:30N 37°57' E 023°38'0 0.0
2017-Sep-15 01:00N 37°57' E 023°38'0 0.0
2017-Sep-15 00:30N 37°57' E 023°38'0 0.0
2017-Sep-15 00:00N 37°57' E 023°38'0 0.0
2017-Sep-14 23:30N 37°57' E 023°38'0 0.0
2017-Sep-14 23:00N 37°57' E 023°38'0 0.0
2017-Sep-14 22:30N 37°57' E 023°38'0 0.0
2017-Sep-14 22:00N 37°57' E 023°38'0 0.0
2017-Sep-14 21:30N 37°57' E 023°38'0 0.0
2017-Sep-14 21:00N 37°57' E 023°38'0 0.0
2017-Sep-14 20:30N 37°57' E 023°38'0 0.0
2017-Sep-14 19:51N 37°57' E 023°38'0 0.0
2017-Sep-14 19:30N 37°57' E 023°38'0 0.0
2017-Sep-14 19:00N 37°57' E 023°38'0 0.0
2017-Sep-14 18:30N 37°57' E 023°38'0 0.0
2017-Sep-14 18:00N 37°57' E 023°38'0 0.0
2017-Sep-14 17:24N 37°57' E 023°38'0 0.0
2017-Sep-14 16:57N 37°57' E 023°38'0 0.0
2017-Sep-14 16:27N 37°57' E 023°38'0 0.0
2017-Sep-14 16:00N 37°57' E 023°38'816.9
2017-Sep-14 15:31N 37°49' E 023°41'1631.3
2017-Sep-14 15:00N 37°35' E 023°51'4 0.5
2017-Sep-14 05:25N 37°32' E 023°55'1331.4
2017-Sep-14 05:00N 37°40' E 023°43'1530.0
2017-Sep-14 04:31N 37°55' E 023°37'3 0.3
2017-Sep-13 18:32N 37°57' E 023°38'0 0.0
2017-Sep-13 18:26N 37°57' E 023°38'0 0.0
2017-Sep-13 16:20N 37°57' E 023°38'0 0.0
2017-Sep-13 15:59N 37°57' E 023°38'918.8
2017-Sep-13 15:31N 37°48' E 023°41'12 1.1
2017-Sep-13 05:10N 37°37' E 023°47'530.5
2017-Sep-13 05:00N 37°41' E 023°42'1529.3
2017-Sep-13 04:31N 37°55' E 023°37'3 0.4
2017-Sep-12 22:01N 37°57' E 023°38'0 0.1
2017-Sep-12 21:58N 37°57' E 023°38'0 0.0
2017-Sep-12 21:28N 37°57' E 023°38'0 0.0
2017-Sep-12 20:55N 37°57' E 023°38'0 0.0
2017-Sep-12 20:28N 37°57' E 023°38'0 0.0
2017-Sep-12 19:58N 37°57' E 023°38'0 0.0
2017-Sep-12 19:28N 37°57' E 023°38'0 0.0
2017-Sep-12 18:58N 37°57' E 023°38'0 0.0
2017-Sep-12 18:25N 37°57' E 023°38'0 0.0
2017-Sep-12 17:52N 37°57' E 023°38'0 0.0
2017-Sep-12 17:07N 37°57' E 023°38'0 0.0
2017-Sep-12 16:55N 37°57' E 023°38'0 0.0
2017-Sep-12 16:28N 37°57' E 023°38'0 0.0
2017-Sep-12 16:00N 37°57' E 023°38'918.8
2017-Sep-12 15:31N 37°48' E 023°42'1530.4
2017-Sep-12 15:00N 37°36' E 023°53'5 0.5
2017-Sep-12 05:08N 37°37' E 023°47'431.2
2017-Sep-12 05:01N 37°39' E 023°44'1529.9
2017-Sep-12 04:31N 37°53' E 023°37'3 5.5
2017-Sep-12 03:53N 37°57' E 023°38'0 0.0
2017-Sep-12 03:29N 37°57' E 023°38'0 0.0
2017-Sep-12 02:56N 37°57' E 023°38'0 0.0
2017-Sep-12 02:29N 37°57' E 023°38'0 0.0
2017-Sep-12 01:56N 37°57' E 023°38'0 0.0
2017-Sep-12 01:29N 37°57' E 023°38'0 0.0
2017-Sep-12 00:59N 37°57' E 023°38'0 0.0
2017-Sep-12 00:29N 37°57' E 023°38'0 0.0
2017-Sep-11 23:59N 37°57' E 023°38'0 0.0
2017-Sep-11 23:26N 37°57' E 023°38'0 0.0
2017-Sep-11 22:56N 37°57' E 023°38'0 0.0
2017-Sep-11 22:29N 37°57' E 023°38'0 0.0
2017-Sep-11 21:59N 37°57' E 023°38'0 0.0
2017-Sep-11 21:29N 37°57' E 023°38'0 0.0
2017-Sep-11 20:56N 37°57' E 023°38'0 0.0
2017-Sep-11 20:29N 37°57' E 023°38'0 0.0
2017-Sep-11 19:53N 37°57' E 023°38'0 0.0
2017-Sep-11 19:29N 37°57' E 023°38'0 0.0
2017-Sep-11 18:59N 37°57' E 023°38'0 0.0
2017-Sep-11 18:29N 37°57' E 023°38'0 0.0
2017-Sep-11 17:56N 37°57' E 023°38'0 0.0
2017-Sep-11 17:29N 37°57' E 023°38'0 0.0
2017-Sep-11 16:53N 37°57' E 023°38'0 0.0
2017-Sep-11 16:29N 37°57' E 023°38'1 1.2
2017-Sep-11 16:01N 37°56' E 023°38'1121.9
2017-Sep-11 15:31N 37°46' E 023°42'11123.3
2017-Sep-11 10:44N 36°26' E 025°19'10218.3
2017-Sep-11 05:08N 37°37' E 023°47'430.1
2017-Sep-11 05:00N 37°40' E 023°44'1529.7
2017-Sep-11 04:31N 37°53' E 023°37'4 7.0
2017-Sep-11 03:59N 37°57' E 023°38'0 0.0
2017-Sep-11 03:29N 37°57' E 023°38'0 0.0
2017-Sep-11 02:59N 37°57' E 023°38'0 0.0
2017-Sep-11 02:29N 37°57' E 023°38'0 0.0
2017-Sep-11 01:59N 37°57' E 023°38'0 0.0
2017-Sep-11 01:26N 37°57' E 023°38'0 0.0
2017-Sep-11 00:59N 37°57' E 023°38'0 0.0
2017-Sep-11 00:29N 37°57' E 023°38'0 0.0
2017-Sep-10 23:50N 37°57' E 023°38'0 0.0
2017-Sep-10 23:29N 37°57' E 023°38'0 0.0
2017-Sep-10 22:59N 37°57' E 023°38'0 0.0
2017-Sep-10 22:29N 37°57' E 023°38'0 0.0
2017-Sep-10 21:59N 37°57' E 023°38'0 0.0
2017-Sep-10 21:29N 37°57' E 023°38'0 0.0
2017-Sep-10 20:59N 37°57' E 023°38'  
Track history (hours):
 
Tides and Currents Weather Stations Pressure Air Temp Water Temp Dewpoint Dewpoint Depression Visibility Wind Speed Wind Dir Waves Ship Positions

Hellenic Highspeed

Last reported at 2017-Sep-20 20:59 UTC. Time now 2017-Sep-20 22:12 UTC.
Position N 37°57' E 023°38'.

Length 87 m; draft 4 m.

Type: High speed craft. MMSI: 241420000.

Date/timePositionNaut miles runAvg speedWind from/ knotsBaromVisibWave heightAir tempDewpointWater temp
2017-Sep-20 20:59N 37°57' E 023°38'0 0.0
2017-Sep-20 20:29N 37°57' E 023°38'0 0.0
2017-Sep-20 19:59N 37°57' E 023°38'0 0.0
2017-Sep-20 19:29N 37°57' E 023°38'0 0.0
2017-Sep-20 18:59N 37°57' E 023°38'0 0.0
2017-Sep-20 18:29N 37°57' E 023°38'0 0.0
2017-Sep-20 17:59N 37°57' E 023°38'0 0.0
2017-Sep-20 17:29N 37°57' E 023°38'0 0.0
2017-Sep-20 16:59N 37°57' E 023°38'0 0.0
2017-Sep-20 16:29N 37°57' E 023°38'3 6.0
2017-Sep-20 16:00N 37°54' E 023°38'1428.1
2017-Sep-20 15:31N 37°42' E 023°46'9012.7
2017-Sep-20 08:26N 36°43' E 025°12'1631.0
2017-Sep-20 07:55N 36°49' E 024°54'7225.8
2017-Sep-20 05:07N 37°38' E 023°46'431.1
2017-Sep-20 05:00N 37°40' E 023°43'1530.3
2017-Sep-20 04:31N 37°54' E 023°36'3 5.6
2017-Sep-20 03:58N 37°57' E 023°38'0 0.0
2017-Sep-20 03:28N 37°57' E 023°38'0 0.0
2017-Sep-20 02:58N 37°57' E 023°38'0 0.0
2017-Sep-20 02:28N 37°57' E 023°38'0 0.0
2017-Sep-20 01:58N 37°57' E 023°38'0 0.0
2017-Sep-20 01:28N 37°57' E 023°38'0 0.0
2017-Sep-20 00:58N 37°57' E 023°38'0 0.0
2017-Sep-20 00:28N 37°57' E 023°38'0 0.0
2017-Sep-20 00:00N 37°57' E 023°38'0 0.0
2017-Sep-19 23:28N 37°57' E 023°38'0 0.0
2017-Sep-19 22:58N 37°57' E 023°38'0 0.0
2017-Sep-19 21:19N 37°57' E 023°38'0 0.0
2017-Sep-19 20:58N 37°57' E 023°38'0 0.0
2017-Sep-19 20:28N 37°57' E 023°38'0 0.0
2017-Sep-19 19:04N 37°57' E 023°38'0 0.0
2017-Sep-19 18:58N 37°57' E 023°38'0 0.0
2017-Sep-19 18:28N 37°57' E 023°38'0 0.0
2017-Sep-19 17:58N 37°57' E 023°38'0 0.0
2017-Sep-19 17:28N 37°57' E 023°38'0 0.0
2017-Sep-19 16:58N 37°57' E 023°38'0 0.0
2017-Sep-19 16:28N 37°57' E 023°38'0 0.1
2017-Sep-19 16:01N 37°57' E 023°38'918.4
2017-Sep-19 15:31N 37°48' E 023°41'1530.9
2017-Sep-19 15:01N 37°35' E 023°52'1630.4
2017-Sep-19 14:30N 37°23' E 024°05'25 3.1
2017-Sep-19 06:33N 37°06' E 024°26'131.4
2017-Sep-19 06:30N 37°06' E 024°25'1631.8
2017-Sep-19 06:00N 37°18' E 024°11'1632.2
2017-Sep-19 05:30N 37°29' E 023°57'1631.3
2017-Sep-19 05:01N 37°40' E 023°43'1529.7
2017-Sep-19 04:31N 37°54' E 023°37'3 5.0
2017-Sep-19 03:58N 37°57' E 023°38'0 0.0
2017-Sep-19 03:28N 37°57' E 023°38'0 0.0
2017-Sep-19 02:58N 37°57' E 023°38'0 0.0
2017-Sep-19 02:28N 37°57' E 023°38'0 0.0
2017-Sep-19 01:58N 37°57' E 023°38'0 0.0
2017-Sep-19 01:28N 37°57' E 023°38'0 0.0
2017-Sep-19 00:58N 37°57' E 023°38'0 0.0
2017-Sep-19 00:28N 37°57' E 023°38'0 0.0
2017-Sep-18 23:58N 37°57' E 023°38'0 0.0
2017-Sep-18 23:28N 37°57' E 023°38'0 0.0
2017-Sep-18 22:58N 37°57' E 023°38'0 0.0
2017-Sep-18 22:28N 37°57' E 023°38'0 0.0
2017-Sep-18 21:58N 37°57' E 023°38'0 0.0
2017-Sep-18 21:28N 37°57' E 023°38'0 0.0
2017-Sep-18 20:58N 37°57' E 023°38'0 0.0
2017-Sep-18 20:28N 37°57' E 023°38'0 0.0
2017-Sep-18 19:58N 37°57' E 023°38'0 0.0
2017-Sep-18 19:28N 37°57' E 023°38'0 0.0
2017-Sep-18 18:58N 37°57' E 023°38'0 0.0
2017-Sep-18 18:28N 37°57' E 023°38'0 0.0
2017-Sep-18 17:58N 37°57' E 023°38'0 0.0
2017-Sep-18 17:28N 37°57' E 023°38'0 0.0
2017-Sep-18 16:58N 37°57' E 023°38'0 0.0
2017-Sep-18 16:28N 37°57' E 023°38'0 0.0
2017-Sep-18 16:00N 37°57' E 023°38'918.2
2017-Sep-18 15:31N 37°48' E 023°41'1530.3
2017-Sep-18 15:00N 37°36' E 023°53'29 3.3
2017-Sep-18 06:12N 37°14' E 024°17'632.2
2017-Sep-18 06:00N 37°18' E 024°11'1631.8
2017-Sep-18 05:31N 37°29' E 023°57'1631.1
2017-Sep-18 05:00N 37°40' E 023°43'1530.6
2017-Sep-18 04:31N 37°54' E 023°36'3 5.5
2017-Sep-18 03:58N 37°57' E 023°38'0 0.0
2017-Sep-18 03:25N 37°57' E 023°38'0 0.0
2017-Sep-18 02:58N 37°57' E 023°38'0 0.0
2017-Sep-18 02:31N 37°57' E 023°38'0 0.0
2017-Sep-18 01:58N 37°57' E 023°38'0 0.0
2017-Sep-18 01:28N 37°57' E 023°38'0 0.0
2017-Sep-18 00:58N 37°57' E 023°38'0 0.0
2017-Sep-18 00:28N 37°57' E 023°38'0 0.0
2017-Sep-17 23:58N 37°57' E 023°38'0 0.0
2017-Sep-17 23:28N 37°57' E 023°38'0 0.0
2017-Sep-17 22:58N 37°57' E 023°38'0 0.0
2017-Sep-17 22:28N 37°57' E 023°38'0 0.0
2017-Sep-17 21:58N 37°57' E 023°38'0 0.0
2017-Sep-17 21:28N 37°57' E 023°38'0 0.0
2017-Sep-17 20:58N 37°57' E 023°38'0 0.0
2017-Sep-17 20:22N 37°57' E 023°38'0 0.0
2017-Sep-17 19:58N 37°57' E 023°38'0 0.0
2017-Sep-17 19:28N 37°57' E 023°38'0 0.0
2017-Sep-17 18:58N 37°57' E 023°38'0 0.0
2017-Sep-17 18:28N 37°57' E 023°38'0 0.0
2017-Sep-17 17:58N 37°57' E 023°38'0 0.0
2017-Sep-17 17:28N 37°57' E 023°38'0 0.0
2017-Sep-17 16:58N 37°57' E 023°38'0 0.0
2017-Sep-17 16:31N 37°57' E 023°38'1 1.6
2017-Sep-17 16:00N 37°56' E 023°38'1223.3
2017-Sep-17 15:30N 37°45' E 023°43'21 2.2
2017-Sep-17 05:37N 37°28' E 023°59'431.4
2017-Sep-17 05:30N 37°31' E 023°56'1631.2
2017-Sep-17 05:01N 37°42' E 023°42'1428.5
2017-Sep-17 04:31N 37°55' E 023°37'2 3.4
2017-Sep-17 03:58N 37°57' E 023°38'0 0.0
2017-Sep-17 03:28N 37°57' E 023°38'0 0.0
2017-Sep-17 02:55N 37°57' E 023°38'0 0.0
2017-Sep-17 02:28N 37°57' E 023°38'0 0.0
2017-Sep-17 01:58N 37°57' E 023°38'0 0.0
2017-Sep-17 01:28N 37°57' E 023°38'0 0.0
2017-Sep-17 00:58N 37°57' E 023°38'0 0.0
2017-Sep-17 00:28N 37°57' E 023°38'0 0.0
2017-Sep-16 23:58N 37°57' E 023°38'0 0.0
2017-Sep-16 23:28N 37°57' E 023°38'0 0.0
2017-Sep-16 22:58N 37°57' E 023°38'0 0.0
2017-Sep-16 22:28N 37°57' E 023°38'0 0.0
2017-Sep-16 21:58N 37°57' E 023°38'0 0.0
2017-Sep-16 21:25N 37°57' E 023°38'0 0.0
2017-Sep-16 20:58N 37°57' E 023°38'0 0.0
2017-Sep-16 20:28N 37°57' E 023°38'0 0.0
2017-Sep-16 19:58N 37°57' E 023°38'0 0.0
2017-Sep-16 19:25N 37°57' E 023°38'0 0.0
2017-Sep-16 18:58N 37°57' E 023°38'0 0.0
2017-Sep-16 18:28N 37°57' E 023°38'0 0.0
2017-Sep-16 17:58N 37°57' E 023°38'0 0.0
2017-Sep-16 17:28N 37°57' E 023°38'0 0.0
2017-Sep-16 16:58N 37°57' E 023°38'0 0.0
2017-Sep-16 16:28N 37°57' E 023°38'0 0.5
2017-Sep-16 16:00N 37°57' E 023°38'1020.5
2017-Sep-16 15:31N 37°47' E 023°42'13 1.3
2017-Sep-16 05:16N 37°35' E 023°50'830.8
2017-Sep-16 05:01N 37°41' E 023°42'1529.5
2017-Sep-16 04:31N 37°55' E 023°36'2 4.1
2017-Sep-16 03:54N 37°57' E 023°38'0 0.0
2017-Sep-16 03:30N 37°57' E 023°38'0 0.0
2017-Sep-16 03:00N 37°57' E 023°38'0 0.0
2017-Sep-16 02:30N 37°57' E 023°38'0 0.0
2017-Sep-16 02:00N 37°57' E 023°38'0 0.0
2017-Sep-16 01:30N 37°57' E 023°38'0 0.0
2017-Sep-16 01:00N 37°57' E 023°38'0 0.0
2017-Sep-16 00:30N 37°57' E 023°38'0 0.0
2017-Sep-16 00:00N 37°57' E 023°38'0 0.0
2017-Sep-15 23:30N 37°57' E 023°38'0 0.0
2017-Sep-15 23:00N 37°57' E 023°38'0 0.0
2017-Sep-15 22:30N 37°57' E 023°38'0 0.0
2017-Sep-15 22:00N 37°57' E 023°38'0 0.0
2017-Sep-15 21:30N 37°57' E 023°38'0 0.0
2017-Sep-15 21:00N 37°57' E 023°38'0 0.0
2017-Sep-15 20:30N 37°57' E 023°38'0 0.0
2017-Sep-15 20:00N 37°57' E 023°38'0 0.0
2017-Sep-15 19:30N 37°57' E 023°38'0 0.0
2017-Sep-15 19:00N 37°57' E 023°38'0 0.0
2017-Sep-15 18:30N 37°57' E 023°38'0 0.0
2017-Sep-15 18:00N 37°57' E 023°38'0 0.0
2017-Sep-15 17:30N 37°57' E 023°38'0 0.0
2017-Sep-15 17:00N 37°57' E 023°38'0 0.0
2017-Sep-15 16:30N 37°57' E 023°38'0 0.0
2017-Sep-15 16:01N 37°57' E 023°38'918.8
2017-Sep-15 15:31N 37°48' E 023°41'1530.4
2017-Sep-15 15:01N 37°35' E 023°53'1530.4
2017-Sep-15 14:31N 37°24' E 024°05'1529.9
2017-Sep-15 14:01N 37°13' E 024°18'33 3.8
2017-Sep-15 05:13N 37°36' E 023°48'630.6
2017-Sep-15 05:01N 37°41' E 023°42'1530.0
2017-Sep-15 04:30N 37°55' E 023°36'3 5.4
2017-Sep-15 04:00N 37°57' E 023°38'0 0.0
2017-Sep-15 03:30N 37°57' E 023°38'0 0.0
2017-Sep-15 03:00N 37°57' E 023°38'0 0.0
2017-Sep-15 02:27N 37°57' E 023°38'0 0.0
2017-Sep-15 02:00N 37°57' E 023°38'0 0.0
2017-Sep-15 01:30N 37°57' E 023°38'0 0.0
2017-Sep-15 01:00N 37°57' E 023°38'0 0.0
2017-Sep-15 00:30N 37°57' E 023°38'0 0.0
2017-Sep-15 00:00N 37°57' E 023°38'0 0.0
2017-Sep-14 23:30N 37°57' E 023°38'0 0.0
2017-Sep-14 23:00N 37°57' E 023°38'0 0.0
2017-Sep-14 22:30N 37°57' E 023°38'0 0.0
2017-Sep-14 22:00N 37°57' E 023°38'0 0.0
2017-Sep-14 21:30N 37°57' E 023°38'0 0.0
2017-Sep-14 21:00N 37°57' E 023°38'0 0.0
2017-Sep-14 20:30N 37°57' E 023°38'0 0.0
2017-Sep-14 19:51N 37°57' E 023°38'0 0.0
2017-Sep-14 19:30N 37°57' E 023°38'0 0.0
2017-Sep-14 19:00N 37°57' E 023°38'0 0.0
2017-Sep-14 18:30N 37°57' E 023°38'0 0.0
2017-Sep-14 18:00N 37°57' E 023°38'0 0.0
2017-Sep-14 17:24N 37°57' E 023°38'0 0.0
2017-Sep-14 16:57N 37°57' E 023°38'0 0.0
2017-Sep-14 16:27N 37°57' E 023°38'0 0.0
2017-Sep-14 16:00N 37°57' E 023°38'816.9
2017-Sep-14 15:31N 37°49' E 023°41'1631.3
2017-Sep-14 15:00N 37°35' E 023°51'4 0.5
2017-Sep-14 05:25N 37°32' E 023°55'1331.4
2017-Sep-14 05:00N 37°40' E 023°43'1530.0
2017-Sep-14 04:31N 37°55' E 023°37'3 0.3
2017-Sep-13 18:32N 37°57' E 023°38'0 0.0
2017-Sep-13 18:26N 37°57' E 023°38'0 0.0
2017-Sep-13 16:20N 37°57' E 023°38'0 0.0
2017-Sep-13 15:59N 37°57' E 023°38'918.8
2017-Sep-13 15:31N 37°48' E 023°41'12 1.1
2017-Sep-13 05:10N 37°37' E 023°47'530.5
2017-Sep-13 05:00N 37°41' E 023°42'1529.3
2017-Sep-13 04:31N 37°55' E 023°37'3 0.4
2017-Sep-12 22:01N 37°57' E 023°38'0 0.1
2017-Sep-12 21:58N 37°57' E 023°38'0 0.0
2017-Sep-12 21:28N 37°57' E 023°38'0 0.0
2017-Sep-12 20:55N 37°57' E 023°38'0 0.0
2017-Sep-12 20:28N 37°57' E 023°38'0 0.0
2017-Sep-12 19:58N 37°57' E 023°38'0 0.0
2017-Sep-12 19:28N 37°57' E 023°38'0 0.0
2017-Sep-12 18:58N 37°57' E 023°38'0 0.0
2017-Sep-12 18:25N 37°57' E 023°38'0 0.0
2017-Sep-12 17:52N 37°57' E 023°38'0 0.0
2017-Sep-12 17:07N 37°57' E 023°38'0 0.0
2017-Sep-12 16:55N 37°57' E 023°38'0 0.0
2017-Sep-12 16:28N 37°57' E 023°38'0 0.0
2017-Sep-12 16:00N 37°57' E 023°38'918.8
2017-Sep-12 15:31N 37°48' E 023°42'1530.4
2017-Sep-12 15:00N 37°36' E 023°53'5 0.5
2017-Sep-12 05:08N 37°37' E 023°47'431.2
2017-Sep-12 05:01N 37°39' E 023°44'1529.9
2017-Sep-12 04:31N 37°53' E 023°37'3 5.5
2017-Sep-12 03:53N 37°57' E 023°38'0 0.0
2017-Sep-12 03:29N 37°57' E 023°38'0 0.0
2017-Sep-12 02:56N 37°57' E 023°38'0 0.0
2017-Sep-12 02:29N 37°57' E 023°38'0 0.0
2017-Sep-12 01:56N 37°57' E 023°38'0 0.0
2017-Sep-12 01:29N 37°57' E 023°38'0 0.0
2017-Sep-12 00:59N 37°57' E 023°38'0 0.0
2017-Sep-12 00:29N 37°57' E 023°38'0 0.0
2017-Sep-11 23:59N 37°57' E 023°38'0 0.0
2017-Sep-11 23:26N 37°57' E 023°38'0 0.0
2017-Sep-11 22:56N 37°57' E 023°38'0 0.0
2017-Sep-11 22:29N 37°57' E 023°38'0 0.0
2017-Sep-11 21:59N 37°57' E 023°38'0 0.0
2017-Sep-11 21:29N 37°57' E 023°38'0 0.0
2017-Sep-11 20:56N 37°57' E 023°38'0 0.0
2017-Sep-11 20:29N 37°57' E 023°38'0 0.0
2017-Sep-11 19:53N 37°57' E 023°38'0 0.0
2017-Sep-11 19:29N 37°57' E 023°38'0 0.0
2017-Sep-11 18:59N 37°57' E 023°38'0 0.0
2017-Sep-11 18:29N 37°57' E 023°38'0 0.0
2017-Sep-11 17:56N 37°57' E 023°38'0 0.0
2017-Sep-11 17:29N 37°57' E 023°38'0 0.0
2017-Sep-11 16:53N 37°57' E 023°38'0 0.0
2017-Sep-11 16:29N 37°57' E 023°38'1 1.2
2017-Sep-11 16:01N 37°56' E 023°38'1121.9
2017-Sep-11 15:31N 37°46' E 023°42'11123.3
2017-Sep-11 10:44N 36°26' E 025°19'10218.3
2017-Sep-11 05:08N 37°37' E 023°47'430.1
2017-Sep-11 05:00N 37°40' E 023°44'1529.7
2017-Sep-11 04:31N 37°53' E 023°37'4 7.0
2017-Sep-11 03:59N 37°57' E 023°38'0 0.0
2017-Sep-11 03:29N 37°57' E 023°38'0 0.0
2017-Sep-11 02:59N 37°57' E 023°38'0 0.0
2017-Sep-11 02:29N 37°57' E 023°38'0 0.0
2017-Sep-11 01:59N 37°57' E 023°38'0 0.0
2017-Sep-11 01:26N 37°57' E 023°38'0 0.0
2017-Sep-11 00:59N 37°57' E 023°38'0 0.0
2017-Sep-11 00:29N 37°57' E 023°38'0 0.0
2017-Sep-10 23:50N 37°57' E 023°38'0 0.0
2017-Sep-10 23:29N 37°57' E 023°38'0 0.0
2017-Sep-10 22:59N 37°57' E 023°38'0 0.0
2017-Sep-10 22:29N 37°57' E 023°38'0 0.0
2017-Sep-10 21:59N 37°57' E 023°38'0 0.0
2017-Sep-10 21:29N 37°57' E 023°38'0 0.0
2017-Sep-10 20:59N 37°57' E 023°38'  

Dump ship's entire track history